createdAt,value
2018-05-09T00:02:54.695Z,52.30
2018-05-09T00:06:47.882Z,52.40
2018-05-09T00:10:40.996Z,52.90
2018-05-09T00:14:34.886Z,53.30
2018-05-09T00:18:28.080Z,53.30
2018-05-09T00:22:21.311Z,53.60
2018-05-09T00:26:14.456Z,53.70
2018-05-09T00:30:07.575Z,54.00
2018-05-09T00:34:00.704Z,54.50
2018-05-09T00:37:53.845Z,55.10
2018-05-09T00:41:47.027Z,55.60
2018-05-09T00:45:40.906Z,56.10
2018-05-09T00:49:34.006Z,56.10
2018-05-09T00:53:27.154Z,56.20
2018-05-09T01:01:20.240Z,56.60
2018-05-09T01:05:14.137Z,57.00
2018-05-09T01:09:07.343Z,57.00
2018-05-09T01:13:01.959Z,57.50
2018-05-09T01:16:55.126Z,57.50
2018-05-09T01:20:48.240Z,57.80
2018-05-09T01:24:41.515Z,57.80
2018-05-09T01:28:35.095Z,57.90
2018-05-09T01:32:28.312Z,57.90
2018-05-09T01:36:21.453Z,58.10
2018-05-09T01:40:14.568Z,58.50
2018-05-09T01:44:07.690Z,58.90
2018-05-09T01:48:00.795Z,59.10
2018-05-09T01:51:53.972Z,59.20
2018-05-09T01:55:47.092Z,59.20
2018-05-09T01:59:39.994Z,59.20
2018-05-09T02:03:33.087Z,59.30
2018-05-09T02:07:26.207Z,59.30
2018-05-09T02:11:20.138Z,59.50
2018-05-09T02:15:13.249Z,58.90
2018-05-09T02:19:07.161Z,58.80
2018-05-09T02:23:00.292Z,58.80
2018-05-09T02:26:53.416Z,58.80
2018-05-09T02:30:46.581Z,58.60
2018-05-09T02:34:39.718Z,58.50
2018-05-09T02:38:32.837Z,58.50
2018-05-09T02:42:25.963Z,58.60
2018-05-09T02:46:19.101Z,58.50
2018-05-09T02:50:12.234Z,58.90
2018-05-09T02:54:05.978Z,58.80
2018-05-09T02:57:59.147Z,58.80
2018-05-09T03:01:52.321Z,58.50
2018-05-09T03:05:45.261Z,58.60
2018-05-09T03:09:38.408Z,58.70
2018-05-09T03:13:31.607Z,58.40
2018-05-09T03:17:24.701Z,58.60
2018-05-09T03:21:17.899Z,58.30
2018-05-09T03:25:11.088Z,57.90
2018-05-09T03:29:04.239Z,57.70
2018-05-09T03:32:57.344Z,57.50
2018-05-09T03:36:50.592Z,57.40
2018-05-09T03:40:43.716Z,58.20
2018-05-09T03:44:36.853Z,57.30
2018-05-09T03:48:29.984Z,57.30
2018-05-09T03:52:23.098Z,57.40
2018-05-09T03:56:16.099Z,57.20
2018-05-09T04:00:09.324Z,57.10
2018-05-09T04:04:14.817Z,57.70
2018-05-09T04:08:19.907Z,57.70
2018-05-09T04:12:13.882Z,60.00
2018-05-09T04:16:07.005Z,60.00
2018-05-09T04:20:00.155Z,61.50
2018-05-09T04:23:53.319Z,62.00
2018-05-09T04:27:46.440Z,63.80
2018-05-09T04:31:39.605Z,64.30
2018-05-09T04:35:32.701Z,65.40
2018-05-09T04:39:25.829Z,66.00
2018-05-09T04:43:19.350Z,67.80
2018-05-09T04:47:12.469Z,67.80
2018-05-09T04:51:06.198Z,68.10
2018-05-09T04:55:00.987Z,66.60
2018-05-09T04:58:53.834Z,65.50
2018-05-09T05:02:46.941Z,65.00
2018-05-09T05:06:40.091Z,64.10
2018-05-09T05:10:33.211Z,62.60
2018-05-09T05:14:28.240Z,62.60
2018-05-09T05:18:21.351Z,62.60
2018-05-09T05:22:14.476Z,61.40
2018-05-09T05:26:07.681Z,62.80
2018-05-09T05:30:00.879Z,62.50
2018-05-09T05:33:53.967Z,63.30
2018-05-09T05:37:47.154Z,63.30
2018-05-09T05:41:40.418Z,64.00
2018-05-09T05:45:33.618Z,66.80
2018-05-09T05:49:26.787Z,70.50
2018-05-09T05:53:19.927Z,71.80
2018-05-09T05:57:13.092Z,68.90
2018-05-09T06:01:07.067Z,66.60
2018-05-09T06:05:00.239Z,66.50
2018-05-09T06:08:53.412Z,65.80
2018-05-09T06:12:46.567Z,65.70
2018-05-09T06:16:39.754Z,67.40
2018-05-09T06:20:32.901Z,70.10
2018-05-09T06:24:26.037Z,70.10
2018-05-09T06:28:19.275Z,70.10
2018-05-09T06:32:13.219Z,68.00
2018-05-09T06:36:07.277Z,68.00
2018-05-09T06:40:00.505Z,66.40
2018-05-09T06:43:53.668Z,65.40
2018-05-09T06:47:47.553Z,61.60
2018-05-09T06:51:40.787Z,61.60
2018-05-09T06:55:33.960Z,60.20
2018-05-09T06:59:27.736Z,60.50
2018-05-09T07:03:20.859Z,58.50
2018-05-09T07:07:13.992Z,54.10
2018-05-09T07:11:07.131Z,52.30
2018-05-09T07:15:00.293Z,51.00
2018-05-09T07:18:53.396Z,50.10
2018-05-09T07:22:47.359Z,49.30
2018-05-09T07:26:40.672Z,49.30
2018-05-09T07:30:33.812Z,48.90
2018-05-09T07:34:27.097Z,48.00
2018-05-09T07:38:20.222Z,48.00
2018-05-09T07:42:13.549Z,47.20
2018-05-09T07:46:07.344Z,47.00
2018-05-09T07:50:00.694Z,47.00
2018-05-09T07:53:54.013Z,46.80
2018-05-09T07:57:46.875Z,46.70
2018-05-09T08:01:40.823Z,46.80
2018-05-09T08:05:34.035Z,46.80
2018-05-09T08:09:27.477Z,46.60
2018-05-09T08:13:20.885Z,48.00
2018-05-09T08:17:14.125Z,48.50
2018-05-09T08:21:08.085Z,48.10
2018-05-09T08:25:01.219Z,48.00
2018-05-09T08:28:54.337Z,47.80
2018-05-09T08:32:47.582Z,47.40
2018-05-09T08:36:45.891Z,48.30
2018-05-09T08:40:44.728Z,47.40
2018-05-09T08:44:41.661Z,46.90
2018-05-09T08:48:35.543Z,46.90
2018-05-09T08:52:28.668Z,46.80
2018-05-09T08:56:21.795Z,47.00
2018-05-09T09:00:14.720Z,47.20
2018-05-09T09:04:07.962Z,47.10
2018-05-09T09:08:01.748Z,47.00
2018-05-09T09:11:54.899Z,46.30
2018-05-09T09:15:48.035Z,46.10
2018-05-09T09:19:41.151Z,45.30
2018-05-09T09:23:34.341Z,45.90
2018-05-09T09:27:28.214Z,44.90
2018-05-09T09:31:21.366Z,44.90
2018-05-09T09:35:15.274Z,44.80
2018-05-09T09:39:08.447Z,44.80
2018-05-09T09:43:01.618Z,46.10
2018-05-09T09:46:54.781Z,44.50
2018-05-09T09:50:47.925Z,45.60
2018-05-09T09:54:41.781Z,45.90
2018-05-09T09:58:34.749Z,45.90
2018-05-09T10:02:28.691Z,45.40
2018-05-09T10:06:21.837Z,45.30
2018-05-09T10:10:14.940Z,45.20
2018-05-09T10:14:08.141Z,44.80
2018-05-09T10:18:02.076Z,43.30
2018-05-09T10:21:55.247Z,43.30
2018-05-09T10:25:48.417Z,42.70
2018-05-09T10:29:41.582Z,43.00
2018-05-09T10:33:34.713Z,42.60
2018-05-09T10:37:27.884Z,43.40
2018-05-09T10:41:21.103Z,43.00
2018-05-09T10:45:14.246Z,41.00
2018-05-09T10:49:07.391Z,40.10
2018-05-09T10:53:00.920Z,38.50
2018-05-09T10:56:54.836Z,37.70
2018-05-09T11:00:47.758Z,37.70
2018-05-09T11:04:42.273Z,37.10
2018-05-09T11:08:35.441Z,37.10
2018-05-09T11:12:28.566Z,37.00
2018-05-09T11:16:21.717Z,37.30
2018-05-09T11:20:14.865Z,36.60
2018-05-09T11:24:07.998Z,35.80
2018-05-09T11:28:01.091Z,36.70
2018-05-09T11:31:54.200Z,37.30
2018-05-09T11:35:48.084Z,36.40
2018-05-09T11:39:41.273Z,36.40
2018-05-09T11:43:34.400Z,37.20
2018-05-09T11:47:27.547Z,35.60
2018-05-09T11:51:20.700Z,35.60
2018-05-09T11:55:13.900Z,35.20
2018-05-09T11:59:06.810Z,34.40
2018-05-09T12:02:59.998Z,35.20
2018-05-09T12:06:53.177Z,35.20
2018-05-09T12:10:46.427Z,34.70
2018-05-09T12:14:39.493Z,34.70
2018-05-09T12:18:33.495Z,33.30
2018-05-09T12:22:27.373Z,33.70
2018-05-09T12:26:20.537Z,32.70
2018-05-09T12:30:14.413Z,31.90
2018-05-09T12:34:07.557Z,31.90
2018-05-09T12:38:00.678Z,31.60
2018-05-09T12:41:53.893Z,32.10
2018-05-09T12:45:47.073Z,32.50
2018-05-09T12:49:40.305Z,33.30
2018-05-09T12:53:34.586Z,29.90
2018-05-09T12:57:27.928Z,30.30
2018-05-09T13:01:21.076Z,30.90
2018-05-09T13:05:14.972Z,31.10
2018-05-09T13:09:08.904Z,30.20
2018-05-09T13:13:02.125Z,30.20
2018-05-09T13:16:56.076Z,29.20
2018-05-09T13:20:49.139Z,29.10
2018-05-09T13:24:42.313Z,28.70
2018-05-09T13:28:35.491Z,29.10
2018-05-09T13:32:28.663Z,28.80
2018-05-09T13:36:22.520Z,29.00
2018-05-09T13:40:15.720Z,29.00
2018-05-09T13:44:08.949Z,29.00
2018-05-09T13:48:02.134Z,29.30
2018-05-09T13:51:55.373Z,29.40
2018-05-09T13:55:48.639Z,29.30
2018-05-09T13:59:41.677Z,29.50
2018-05-09T14:03:34.831Z,31.80
2018-05-09T14:07:27.990Z,32.70
2018-05-09T14:11:21.174Z,33.10
2018-05-09T14:15:14.326Z,33.70
2018-05-09T14:19:07.435Z,34.10
2018-05-09T14:23:02.825Z,33.90
2018-05-09T14:26:57.072Z,33.10
2018-05-09T14:30:50.268Z,33.60
2018-05-09T14:34:43.487Z,33.20
2018-05-09T14:38:37.431Z,33.20
2018-05-09T14:42:30.690Z,33.10
2018-05-09T14:46:23.873Z,33.00
2018-05-09T14:50:17.005Z,32.80
2018-05-09T14:54:10.218Z,31.90
2018-05-09T14:58:03.160Z,31.80
2018-05-09T15:01:56.328Z,31.60
2018-05-09T15:05:49.427Z,31.50
2018-05-09T15:09:43.341Z,31.10
2018-05-09T15:13:36.557Z,31.10
2018-05-09T15:17:29.694Z,30.50
2018-05-09T15:21:22.847Z,30.40
2018-05-09T15:25:16.055Z,30.80
2018-05-09T15:29:09.245Z,30.50
2018-05-09T15:33:03.126Z,29.30
2018-05-09T15:36:56.808Z,29.30
2018-05-09T15:40:51.505Z,29.30
2018-05-09T15:44:45.519Z,29.50
2018-05-09T15:48:38.663Z,29.50
2018-05-09T15:52:31.838Z,29.30
2018-05-09T15:56:25.691Z,30.60
2018-05-09T16:00:18.647Z,30.70
2018-05-09T16:04:11.785Z,31.20
2018-05-09T16:08:05.016Z,31.60
2018-05-09T16:11:59.045Z,32.20
2018-05-09T16:15:53.483Z,32.40
2018-05-09T16:19:46.613Z,32.20
2018-05-09T16:23:39.763Z,32.30
2018-05-09T16:27:32.948Z,32.50
2018-05-09T16:31:26.116Z,32.40
2018-05-09T16:35:19.234Z,32.70
2018-05-09T16:39:12.359Z,33.00
2018-05-09T16:43:06.238Z,33.80
2018-05-09T16:47:00.188Z,33.50
2018-05-09T16:50:53.341Z,33.40
2018-05-09T16:54:46.887Z,34.10
2018-05-09T16:58:40.301Z,35.20
2018-05-09T17:02:33.481Z,35.80
2018-05-09T17:06:26.678Z,36.00
2018-05-09T17:10:19.789Z,36.10
2018-05-09T17:14:12.898Z,36.40
2018-05-09T17:18:06.097Z,36.80
2018-05-09T17:22:18.665Z,37.00
2018-05-09T17:26:11.760Z,37.00
2018-05-09T17:30:04.890Z,36.90
2018-05-09T17:33:58.083Z,37.20
2018-05-09T17:37:51.458Z,37.20
2018-05-09T17:41:44.558Z,37.50
2018-05-09T17:45:37.754Z,38.70
2018-05-09T17:49:31.097Z,39.40
2018-05-09T17:53:24.225Z,39.80
2018-05-09T17:57:17.388Z,40.10
2018-05-09T18:01:10.596Z,40.40
2018-05-09T18:05:05.326Z,40.70
2018-05-09T18:08:58.539Z,40.80
2018-05-09T18:12:51.709Z,41.00
2018-05-09T18:16:44.940Z,41.20
2018-05-09T18:20:38.159Z,41.40
2018-05-09T18:24:31.265Z,41.80
2018-05-09T18:28:25.185Z,42.40
2018-05-09T18:32:18.360Z,42.40
2018-05-09T18:36:11.546Z,42.60
2018-05-09T18:40:04.808Z,42.30
2018-05-09T18:43:57.969Z,42.60
2018-05-09T18:47:51.091Z,42.60
2018-05-09T18:51:44.352Z,42.70
2018-05-09T18:55:38.218Z,43.40
2018-05-09T18:59:32.190Z,43.40
2018-05-09T19:03:25.299Z,43.70
2018-05-09T19:07:19.626Z,44.10
2018-05-09T19:11:14.408Z,44.60
2018-05-09T19:15:08.601Z,45.80
2018-05-09T19:19:01.053Z,45.20
2018-05-09T19:27:10.029Z,45.90
2018-05-09T19:31:03.215Z,46.30
2018-05-09T19:34:57.150Z,46.90
2018-05-09T19:38:50.603Z,46.90
2018-05-09T19:42:43.732Z,47.00
2018-05-09T19:46:36.903Z,47.40
2018-05-09T19:50:31.129Z,47.40
2018-05-09T19:54:24.243Z,47.80
2018-05-09T19:58:18.153Z,48.00
2018-05-09T20:02:19.853Z,48.60
2018-05-09T20:06:12.962Z,48.60
2018-05-09T20:14:31.302Z,49.10
2018-05-09T20:18:24.581Z,49.10
2018-05-09T20:22:17.670Z,49.20
2018-05-09T20:26:10.805Z,49.30
2018-05-09T20:30:04.084Z,49.60
2018-05-09T20:33:57.292Z,49.60
2018-05-09T20:37:50.440Z,50.10
2018-05-09T20:41:43.959Z,52.30
2018-05-09T20:45:37.468Z,54.20
2018-05-09T20:49:31.087Z,54.60
2018-05-09T20:53:24.554Z,56.50
2018-05-09T20:57:17.688Z,57.20
2018-05-09T21:01:16.411Z,57.40
2018-05-09T21:05:10.538Z,57.40
2018-05-09T21:09:03.870Z,57.30
2018-05-09T21:12:57.061Z,57.80
2018-05-09T21:16:50.392Z,57.80
2018-05-09T21:20:44.644Z,56.40
2018-05-09T21:24:37.874Z,56.40
2018-05-09T21:28:30.999Z,57.40
2018-05-09T21:32:25.709Z,57.70
2018-05-09T21:36:20.340Z,58.70
2018-05-09T21:40:13.513Z,58.40
2018-05-09T21:44:07.797Z,58.70
2018-05-09T21:48:00.974Z,59.20
2018-05-09T21:51:54.199Z,59.70
2018-05-09T21:55:48.106Z,60.00
2018-05-09T21:59:41.115Z,60.00
2018-05-09T22:03:34.263Z,60.30
2018-05-09T22:07:27.477Z,62.00
2018-05-09T22:11:21.385Z,64.90
2018-05-09T22:15:14.704Z,64.90
2018-05-09T22:19:07.804Z,65.60
2018-05-09T22:23:01.229Z,66.50
2018-05-09T22:26:54.393Z,67.40
2018-05-09T22:30:47.704Z,67.60
2018-05-09T22:34:40.947Z,67.70
2018-05-09T22:38:34.099Z,67.90
2018-05-09T22:42:27.254Z,67.90
2018-05-09T22:46:20.458Z,67.80
2018-05-09T22:50:14.442Z,67.60
2018-05-09T22:54:07.721Z,67.60
2018-05-09T22:58:01.469Z,67.60
2018-05-09T23:01:55.489Z,68.40
2018-05-09T23:05:48.614Z,68.00
2018-05-09T23:09:41.757Z,69.00
2018-05-09T23:13:34.891Z,68.30
2018-05-09T23:17:28.133Z,67.40
2018-05-09T23:21:22.121Z,67.20
2018-05-09T23:25:15.316Z,67.10
2018-05-09T23:29:08.446Z,67.50
2018-05-09T23:33:02.356Z,68.70
2018-05-09T23:36:55.637Z,68.60
2018-05-09T23:40:48.768Z,69.90
2018-05-09T23:44:42.109Z,70.40
2018-05-09T23:48:35.270Z,70.90
2018-05-09T23:52:28.512Z,73.30
2018-05-09T23:56:21.733Z,75.50
